sensor_id;sensor_type;location;lat;lon;timestamp;P1;durP1;ratioP1;P2;durP2;ratioP2
15645;SDS011;7922;43.622;1.476;2023-06-10T00:01:21;4.83;;;1.87;;
15645;SDS011;7922;43.622;1.476;2023-06-10T00:03:46;5.37;;;2.07;;
15645;SDS011;7922;43.622;1.476;2023-06-10T00:06:11;3.73;;;1.70;;
15645;SDS011;7922;43.622;1.476;2023-06-10T00:08:36;5.63;;;1.77;;
15645;SDS011;7922;43.622;1.476;2023-06-10T00:11:02;4.60;;;1.80;;
15645;SDS011;7922;43.622;1.476;2023-06-10T00:13:27;6.53;;;1.40;;
15645;SDS011;7922;43.622;1.476;2023-06-10T00:15:52;3.70;;;1.80;;
15645;SDS011;7922;43.622;1.476;2023-06-10T00:18:17;3.93;;;2.00;;
15645;SDS011;7922;43.622;1.476;2023-06-10T00:20:43;6.63;;;1.60;;
15645;SDS011;7922;43.622;1.476;2023-06-10T00:23:08;5.57;;;1.67;;
15645;SDS011;7922;43.622;1.476;2023-06-10T00:25:33;3.87;;;1.60;;
15645;SDS011;7922;43.622;1.476;2023-06-10T00:27:59;5.67;;;1.53;;
15645;SDS011;7922;43.622;1.476;2023-06-10T00:30:24;5.27;;;2.00;;
15645;SDS011;7922;43.622;1.476;2023-06-10T00:32:50;6.87;;;2.20;;
15645;SDS011;7922;43.622;1.476;2023-06-10T00:35:15;5.50;;;1.97;;
15645;SDS011;7922;43.622;1.476;2023-06-10T00:37:40;6.13;;;2.00;;
15645;SDS011;7922;43.622;1.476;2023-06-10T00:40:06;3.47;;;1.70;;
15645;SDS011;7922;43.622;1.476;2023-06-10T00:42:31;3.83;;;1.60;;
15645;SDS011;7922;43.622;1.476;2023-06-10T00:44:57;4.70;;;2.47;;
15645;SDS011;7922;43.622;1.476;2023-06-10T00:47:22;3.30;;;1.63;;
15645;SDS011;7922;43.622;1.476;2023-06-10T00:49:49;4.10;;;1.60;;
15645;SDS011;7922;43.622;1.476;2023-06-10T00:52:15;6.53;;;1.80;;
15645;SDS011;7922;43.622;1.476;2023-06-10T00:54:41;4.43;;;1.70;;
15645;SDS011;7922;43.622;1.476;2023-06-10T00:57:07;2.73;;;1.60;;
15645;SDS011;7922;43.622;1.476;2023-06-10T00:59:32;3.47;;;1.70;;
15645;SDS011;7922;43.622;1.476;2023-06-10T01:01:58;3.60;;;1.90;;
15645;SDS011;7922;43.622;1.476;2023-06-10T01:04:24;3.37;;;2.00;;
15645;SDS011;7922;43.622;1.476;2023-06-10T01:15:06;7.73;;;1.87;;
15645;SDS011;7922;43.622;1.476;2023-06-10T01:17:32;5.27;;;2.10;;
15645;SDS011;7922;43.622;1.476;2023-06-10T01:19:58;6.03;;;2.10;;
15645;SDS011;7922;43.622;1.476;2023-06-10T01:22:24;3.40;;;1.73;;
15645;SDS011;7922;43.622;1.476;2023-06-10T01:24:50;5.97;;;2.10;;
15645;SDS011;7922;43.622;1.476;2023-06-10T01:27:15;7.77;;;2.03;;
15645;SDS011;7922;43.622;1.476;2023-06-10T01:29:49;7.20;;;1.50;;
15645;SDS011;7922;43.622;1.476;2023-06-10T01:35:05;5.40;;;1.93;;
15645;SDS011;7922;43.622;1.476;2023-06-10T01:37:33;7.00;;;2.23;;
15645;SDS011;7922;43.622;1.476;2023-06-10T01:39:59;2.30;;;1.57;;
15645;SDS011;7922;43.622;1.476;2023-06-10T01:42:26;4.07;;;1.77;;
15645;SDS011;7922;43.622;1.476;2023-06-10T01:44:53;3.50;;;1.70;;
15645;SDS011;7922;43.622;1.476;2023-06-10T01:47:18;6.43;;;1.70;;
15645;SDS011;7922;43.622;1.476;2023-06-10T01:49:43;3.00;;;1.63;;
15645;SDS011;7922;43.622;1.476;2023-06-10T01:52:09;4.47;;;2.10;;
15645;SDS011;7922;43.622;1.476;2023-06-10T01:54:34;6.67;;;1.97;;
15645;SDS011;7922;43.622;1.476;2023-06-10T01:56:59;3.53;;;2.50;;
15645;SDS011;7922;43.622;1.476;2023-06-10T01:59:25;4.23;;;2.20;;
15645;SDS011;7922;43.622;1.476;2023-06-10T02:01:50;6.23;;;2.13;;
15645;SDS011;7922;43.622;1.476;2023-06-10T02:04:16;2.40;;;1.87;;
15645;SDS011;7922;43.622;1.476;2023-06-10T02:06:41;2.80;;;1.70;;
15645;SDS011;7922;43.622;1.476;2023-06-10T02:09:06;6.17;;;1.87;;
15645;SDS011;7922;43.622;1.476;2023-06-10T02:11:31;6.07;;;2.00;;
15645;SDS011;7922;43.622;1.476;2023-06-10T02:13:57;4.13;;;1.80;;
15645;SDS011;7922;43.622;1.476;2023-06-10T02:16:22;3.63;;;1.77;;
15645;SDS011;7922;43.622;1.476;2023-06-10T02:18:47;9.23;;;2.10;;
15645;SDS011;7922;43.622;1.476;2023-06-10T02:21:13;3.40;;;1.70;;
15645;SDS011;7922;43.622;1.476;2023-06-10T02:23:38;5.90;;;1.73;;
15645;SDS011;7922;43.622;1.476;2023-06-10T02:26:03;4.90;;;2.00;;
15645;SDS011;7922;43.622;1.476;2023-06-10T02:28:29;5.67;;;2.00;;
15645;SDS011;7922;43.622;1.476;2023-06-10T02:30:54;7.43;;;2.60;;
15645;SDS011;7922;43.622;1.476;2023-06-10T02:33:19;3.50;;;2.00;;
15645;SDS011;7922;43.622;1.476;2023-06-10T02:35:44;5.13;;;2.10;;
15645;SDS011;7922;43.622;1.476;2023-06-10T02:38:10;3.80;;;1.73;;
15645;SDS011;7922;43.622;1.476;2023-06-10T02:40:35;2.43;;;2.10;;
15645;SDS011;7922;43.622;1.476;2023-06-10T02:43:01;3.73;;;1.67;;
15645;SDS011;7922;43.622;1.476;2023-06-10T02:45:26;3.93;;;2.00;;
15645;SDS011;7922;43.622;1.476;2023-06-10T02:47:51;4.17;;;1.90;;
15645;SDS011;7922;43.622;1.476;2023-06-10T02:50:17;3.57;;;1.60;;
15645;SDS011;7922;43.622;1.476;2023-06-10T02:52:43;3.87;;;2.00;;
15645;SDS011;7922;43.622;1.476;2023-06-10T02:55:08;5.10;;;1.90;;
15645;SDS011;7922;43.622;1.476;2023-06-10T02:57:33;6.07;;;1.97;;
15645;SDS011;7922;43.622;1.476;2023-06-10T02:59:59;4.23;;;1.90;;
15645;SDS011;7922;43.622;1.476;2023-06-10T03:02:24;4.83;;;1.87;;
15645;SDS011;7922;43.622;1.476;2023-06-10T03:04:49;4.30;;;2.40;;
15645;SDS011;7922;43.622;1.476;2023-06-10T03:07:15;8.93;;;1.97;;
15645;SDS011;7922;43.622;1.476;2023-06-10T03:09:40;7.17;;;1.77;;
15645;SDS011;7922;43.622;1.476;2023-06-10T03:12:05;5.57;;;2.30;;
15645;SDS011;7922;43.622;1.476;2023-06-10T03:14:31;4.30;;;2.10;;
15645;SDS011;7922;43.622;1.476;2023-06-10T03:16:57;4.80;;;2.40;;
15645;SDS011;7922;43.622;1.476;2023-06-10T03:19:22;7.27;;;2.23;;
15645;SDS011;7922;43.622;1.476;2023-06-10T03:21:49;4.50;;;2.07;;
15645;SDS011;7922;43.622;1.476;2023-06-10T03:24:15;4.73;;;2.30;;
15645;SDS011;7922;43.622;1.476;2023-06-10T03:26:40;5.33;;;1.90;;
15645;SDS011;7922;43.622;1.476;2023-06-10T03:29:05;5.00;;;1.90;;
15645;SDS011;7922;43.622;1.476;2023-06-10T03:31:30;5.23;;;1.80;;
15645;SDS011;7922;43.622;1.476;2023-06-10T03:33:56;5.23;;;2.00;;
15645;SDS011;7922;43.622;1.476;2023-06-10T03:36:21;6.57;;;2.00;;
15645;SDS011;7922;43.622;1.476;2023-06-10T03:38:46;7.13;;;2.20;;
15645;SDS011;7922;43.622;1.476;2023-06-10T03:41:11;4.87;;;1.83;;
15645;SDS011;7922;43.622;1.476;2023-06-10T03:43:37;5.03;;;2.00;;
15645;SDS011;7922;43.622;1.476;2023-06-10T03:46:02;5.07;;;1.97;;
15645;SDS011;7922;43.622;1.476;2023-06-10T03:48:28;4.20;;;1.97;;
15645;SDS011;7922;43.622;1.476;2023-06-10T03:50:53;5.57;;;1.90;;
15645;SDS011;7922;43.622;1.476;2023-06-10T03:53:18;3.77;;;1.93;;
15645;SDS011;7922;43.622;1.476;2023-06-10T03:55:44;5.63;;;2.03;;
15645;SDS011;7922;43.622;1.476;2023-06-10T03:58:09;5.00;;;2.10;;
15645;SDS011;7922;43.622;1.476;2023-06-10T04:00:34;2.33;;;2.00;;
15645;SDS011;7922;43.622;1.476;2023-06-10T04:02:59;2.97;;;1.60;;
15645;SDS011;7922;43.622;1.476;2023-06-10T04:05:25;5.63;;;2.10;;
15645;SDS011;7922;43.622;1.476;2023-06-10T04:07:50;4.73;;;2.20;;
15645;SDS011;7922;43.622;1.476;2023-06-10T04:10:15;3.27;;;1.93;;
15645;SDS011;7922;43.622;1.476;2023-06-10T04:12:41;7.97;;;2.37;;
15645;SDS011;7922;43.622;1.476;2023-06-10T04:15:07;4.67;;;2.17;;
15645;SDS011;7922;43.622;1.476;2023-06-10T04:17:32;4.63;;;2.20;;
15645;SDS011;7922;43.622;1.476;2023-06-10T04:19:58;4.37;;;2.13;;
15645;SDS011;7922;43.622;1.476;2023-06-10T04:22:23;5.27;;;2.23;;
15645;SDS011;7922;43.622;1.476;2023-06-10T04:24:49;5.27;;;2.13;;
15645;SDS011;7922;43.622;1.476;2023-06-10T04:27:14;10.50;;;2.33;;
15645;SDS011;7922;43.622;1.476;2023-06-10T04:29:40;5.67;;;2.10;;
15645;SDS011;7922;43.622;1.476;2023-06-10T04:32:05;4.77;;;2.10;;
15645;SDS011;7922;43.622;1.476;2023-06-10T04:34:31;4.07;;;2.13;;
15645;SDS011;7922;43.622;1.476;2023-06-10T04:36:56;6.63;;;2.60;;
15645;SDS011;7922;43.622;1.476;2023-06-10T04:39:21;3.90;;;1.90;;
15645;SDS011;7922;43.622;1.476;2023-06-10T04:41:47;7.20;;;2.87;;
15645;SDS011;7922;43.622;1.476;2023-06-10T04:44:12;6.77;;;2.47;;
15645;SDS011;7922;43.622;1.476;2023-06-10T04:46:37;6.37;;;2.03;;
15645;SDS011;7922;43.622;1.476;2023-06-10T04:49:03;2.93;;;2.27;;
15645;SDS011;7922;43.622;1.476;2023-06-10T04:51:28;5.93;;;2.80;;
15645;SDS011;7922;43.622;1.476;2023-06-10T04:53:53;9.67;;;2.70;;
15645;SDS011;7922;43.622;1.476;2023-06-10T04:56:19;4.17;;;2.50;;
15645;SDS011;7922;43.622;1.476;2023-06-10T04:58:44;8.17;;;2.63;;
15645;SDS011;7922;43.622;1.476;2023-06-10T05:01:09;3.53;;;2.20;;
15645;SDS011;7922;43.622;1.476;2023-06-10T05:03:35;4.00;;;2.50;;
15645;SDS011;7922;43.622;1.476;2023-06-10T05:06:00;5.37;;;2.70;;
15645;SDS011;7922;43.622;1.476;2023-06-10T05:08:25;3.97;;;2.37;;
15645;SDS011;7922;43.622;1.476;2023-06-10T05:10:50;5.27;;;2.20;;
15645;SDS011;7922;43.622;1.476;2023-06-10T05:13:16;3.83;;;2.50;;
15645;SDS011;7922;43.622;1.476;2023-06-10T05:15:42;7.93;;;2.40;;
15645;SDS011;7922;43.622;1.476;2023-06-10T05:18:07;4.07;;;2.67;;
15645;SDS011;7922;43.622;1.476;2023-06-10T05:20:32;6.33;;;2.70;;
15645;SDS011;7922;43.622;1.476;2023-06-10T05:22:57;4.83;;;2.60;;
15645;SDS011;7922;43.622;1.476;2023-06-10T05:25:23;5.10;;;2.40;;
15645;SDS011;7922;43.622;1.476;2023-06-10T05:27:48;3.37;;;2.10;;
15645;SDS011;7922;43.622;1.476;2023-06-10T05:30:13;6.43;;;2.07;;
15645;SDS011;7922;43.622;1.476;2023-06-10T05:32:39;6.20;;;2.30;;
15645;SDS011;7922;43.622;1.476;2023-06-10T05:35:04;5.53;;;2.43;;
15645;SDS011;7922;43.622;1.476;2023-06-10T05:37:29;4.77;;;2.60;;
15645;SDS011;7922;43.622;1.476;2023-06-10T05:39:55;7.20;;;2.50;;
15645;SDS011;7922;43.622;1.476;2023-06-10T05:42:20;5.60;;;2.60;;
15645;SDS011;7922;43.622;1.476;2023-06-10T05:44:45;5.87;;;2.50;;
15645;SDS011;7922;43.622;1.476;2023-06-10T05:47:10;5.10;;;2.33;;
15645;SDS011;7922;43.622;1.476;2023-06-10T05:49:36;5.83;;;2.43;;
15645;SDS011;7922;43.622;1.476;2023-06-10T05:52:01;5.40;;;2.23;;
15645;SDS011;7922;43.622;1.476;2023-06-10T05:54:26;8.57;;;3.10;;
15645;SDS011;7922;43.622;1.476;2023-06-10T05:56:52;6.97;;;2.07;;
15645;SDS011;7922;43.622;1.476;2023-06-10T05:59:17;5.73;;;2.57;;
15645;SDS011;7922;43.622;1.476;2023-06-10T06:01:42;3.77;;;2.30;;
15645;SDS011;7922;43.622;1.476;2023-06-10T06:04:08;7.67;;;3.07;;
15645;SDS011;7922;43.622;1.476;2023-06-10T06:06:33;3.90;;;2.30;;
15645;SDS011;7922;43.622;1.476;2023-06-10T06:09:00;6.47;;;2.30;;
15645;SDS011;7922;43.622;1.476;2023-06-10T06:11:25;3.17;;;2.70;;
15645;SDS011;7922;43.622;1.476;2023-06-10T06:13:50;6.63;;;2.43;;
15645;SDS011;7922;43.622;1.476;2023-06-10T06:16:16;5.17;;;2.30;;
15645;SDS011;7922;43.622;1.476;2023-06-10T06:18:41;5.37;;;2.57;;
15645;SDS011;7922;43.622;1.476;2023-06-10T06:21:06;2.50;;;2.30;;
15645;SDS011;7922;43.622;1.476;2023-06-10T06:23:31;3.23;;;2.37;;
15645;SDS011;7922;43.622;1.476;2023-06-10T06:25:57;5.00;;;2.30;;
15645;SDS011;7922;43.622;1.476;2023-06-10T06:28:22;6.03;;;2.67;;
15645;SDS011;7922;43.622;1.476;2023-06-10T06:30:47;3.47;;;2.17;;
15645;SDS011;7922;43.622;1.476;2023-06-10T06:33:13;6.80;;;2.67;;
15645;SDS011;7922;43.622;1.476;2023-06-10T06:35:38;5.27;;;2.57;;
15645;SDS011;7922;43.622;1.476;2023-06-10T06:38:03;4.10;;;2.20;;
15645;SDS011;7922;43.622;1.476;2023-06-10T06:40:29;5.60;;;2.60;;
15645;SDS011;7922;43.622;1.476;2023-06-10T06:42:55;8.03;;;2.40;;
15645;SDS011;7922;43.622;1.476;2023-06-10T06:45:20;5.37;;;2.50;;
15645;SDS011;7922;43.622;1.476;2023-06-10T06:47:46;3.30;;;2.07;;
15645;SDS011;7922;43.622;1.476;2023-06-10T06:50:11;5.27;;;2.47;;
15645;SDS011;7922;43.622;1.476;2023-06-10T06:52:36;4.50;;;1.80;;
15645;SDS011;7922;43.622;1.476;2023-06-10T06:55:01;4.67;;;1.80;;
15645;SDS011;7922;43.622;1.476;2023-06-10T06:57:27;4.07;;;1.77;;
15645;SDS011;7922;43.622;1.476;2023-06-10T06:59:52;2.60;;;2.07;;
15645;SDS011;7922;43.622;1.476;2023-06-10T07:02:17;3.37;;;1.83;;
15645;SDS011;7922;43.622;1.476;2023-06-10T07:04:43;3.43;;;1.93;;
15645;SDS011;7922;43.622;1.476;2023-06-10T07:07:08;2.17;;;1.80;;
15645;SDS011;7922;43.622;1.476;2023-06-10T07:09:33;6.00;;;1.97;;
15645;SDS011;7922;43.622;1.476;2023-06-10T07:11:58;5.17;;;1.73;;
15645;SDS011;7922;43.622;1.476;2023-06-10T07:14:24;4.87;;;1.97;;
15645;SDS011;7922;43.622;1.476;2023-06-10T07:16:50;4.30;;;1.80;;
15645;SDS011;7922;43.622;1.476;2023-06-10T07:19:15;3.73;;;1.83;;
15645;SDS011;7922;43.622;1.476;2023-06-10T07:21:41;4.70;;;2.00;;
15645;SDS011;7922;43.622;1.476;2023-06-10T07:24:06;2.70;;;1.70;;
15645;SDS011;7922;43.622;1.476;2023-06-10T07:26:32;5.07;;;2.37;;
15645;SDS011;7922;43.622;1.476;2023-06-10T07:28:57;3.33;;;1.77;;
15645;SDS011;7922;43.622;1.476;2023-06-10T07:31:23;3.10;;;2.00;;
15645;SDS011;7922;43.622;1.476;2023-06-10T07:33:48;3.47;;;1.70;;
15645;SDS011;7922;43.622;1.476;2023-06-10T07:36:13;2.27;;;2.03;;
15645;SDS011;7922;43.622;1.476;2023-06-10T07:38:39;2.60;;;1.67;;
15645;SDS011;7922;43.622;1.476;2023-06-10T07:41:04;3.63;;;1.90;;
15645;SDS011;7922;43.622;1.476;2023-06-10T07:43:29;2.90;;;1.90;;
15645;SDS011;7922;43.622;1.476;2023-06-10T07:45:54;6.10;;;2.37;;
15645;SDS011;7922;43.622;1.476;2023-06-10T07:48:20;4.70;;;2.03;;
15645;SDS011;7922;43.622;1.476;2023-06-10T07:50:45;3.40;;;1.50;;
15645;SDS011;7922;43.622;1.476;2023-06-10T07:53:10;3.70;;;2.00;;
15645;SDS011;7922;43.622;1.476;2023-06-10T07:55:36;4.27;;;2.00;;
15645;SDS011;7922;43.622;1.476;2023-06-10T07:58:01;2.47;;;1.90;;
15645;SDS011;7922;43.622;1.476;2023-06-10T08:00:26;3.33;;;2.00;;
15645;SDS011;7922;43.622;1.476;2023-06-10T08:02:52;4.07;;;2.10;;
15645;SDS011;7922;43.622;1.476;2023-06-10T08:05:17;2.23;;;1.60;;
15645;SDS011;7922;43.622;1.476;2023-06-10T08:07:43;5.73;;;2.00;;
15645;SDS011;7922;43.622;1.476;2023-06-10T08:10:09;4.33;;;1.77;;
15645;SDS011;7922;43.622;1.476;2023-06-10T08:12:35;2.77;;;2.20;;
15645;SDS011;7922;43.622;1.476;2023-06-10T08:15:01;4.23;;;1.67;;
15645;SDS011;7922;43.622;1.476;2023-06-10T08:17:27;2.53;;;1.80;;
15645;SDS011;7922;43.622;1.476;2023-06-10T08:19:52;4.27;;;1.93;;
15645;SDS011;7922;43.622;1.476;2023-06-10T08:22:17;2.47;;;1.87;;
15645;SDS011;7922;43.622;1.476;2023-06-10T08:24:43;4.27;;;1.80;;
15645;SDS011;7922;43.622;1.476;2023-06-10T08:27:08;3.13;;;1.77;;
15645;SDS011;7922;43.622;1.476;2023-06-10T08:29:33;2.43;;;1.80;;
15645;SDS011;7922;43.622;1.476;2023-06-10T08:31:59;3.20;;;1.83;;
15645;SDS011;7922;43.622;1.476;2023-06-10T08:34:25;2.00;;;1.70;;
15645;SDS011;7922;43.622;1.476;2023-06-10T08:36:50;3.60;;;1.60;;
15645;SDS011;7922;43.622;1.476;2023-06-10T08:39:15;2.67;;;2.03;;
15645;SDS011;7922;43.622;1.476;2023-06-10T08:41:43;4.43;;;1.83;;
15645;SDS011;7922;43.622;1.476;2023-06-10T08:44:26;2.63;;;1.60;;
15645;SDS011;7922;43.622;1.476;2023-06-10T08:46:53;2.50;;;2.00;;
15645;SDS011;7922;43.622;1.476;2023-06-10T08:49:20;3.43;;;1.70;;
15645;SDS011;7922;43.622;1.476;2023-06-10T08:51:50;4.57;;;1.83;;
15645;SDS011;7922;43.622;1.476;2023-06-10T08:54:17;2.30;;;1.60;;
15645;SDS011;7922;43.622;1.476;2023-06-10T08:56:49;3.37;;;1.70;;
15645;SDS011;7922;43.622;1.476;2023-06-10T08:59:16;2.90;;;1.97;;
15645;SDS011;7922;43.622;1.476;2023-06-10T09:01:42;2.75;;;1.83;;
15645;SDS011;7922;43.622;1.476;2023-06-10T09:04:08;4.57;;;2.07;;
15645;SDS011;7922;43.622;1.476;2023-06-10T09:06:34;2.90;;;1.70;;
15645;SDS011;7922;43.622;1.476;2023-06-10T09:09:00;3.37;;;1.63;;
15645;SDS011;7922;43.622;1.476;2023-06-10T09:11:25;2.07;;;1.50;;
15645;SDS011;7922;43.622;1.476;2023-06-10T09:13:50;1.83;;;1.60;;
15645;SDS011;7922;43.622;1.476;2023-06-10T09:16:16;3.70;;;1.60;;
15645;SDS011;7922;43.622;1.476;2023-06-10T09:18:41;2.77;;;1.60;;
15645;SDS011;7922;43.622;1.476;2023-06-10T09:21:07;3.77;;;1.80;;
15645;SDS011;7922;43.622;1.476;2023-06-10T09:23:32;2.80;;;1.60;;
15645;SDS011;7922;43.622;1.476;2023-06-10T09:25:58;1.90;;;1.40;;
15645;SDS011;7922;43.622;1.476;2023-06-10T09:28:23;3.30;;;1.73;;
15645;SDS011;7922;43.622;1.476;2023-06-10T09:30:49;2.03;;;1.70;;
15645;SDS011;7922;43.622;1.476;2023-06-10T09:33:15;5.20;;;1.80;;
15645;SDS011;7922;43.622;1.476;2023-06-10T09:35:48;3.47;;;1.70;;
15645;SDS011;7922;43.622;1.476;2023-06-10T09:38:15;3.80;;;1.80;;
15645;SDS011;7922;43.622;1.476;2023-06-10T09:40:51;3.13;;;1.70;;
15645;SDS011;7922;43.622;1.476;2023-06-10T09:43:17;2.67;;;1.80;;
15645;SDS011;7922;43.622;1.476;2023-06-10T09:45:43;2.97;;;1.97;;
15645;SDS011;7922;43.622;1.476;2023-06-10T09:48:09;2.23;;;1.70;;
15645;SDS011;7922;43.622;1.476;2023-06-10T09:50:34;2.80;;;1.50;;
15645;SDS011;7922;43.622;1.476;2023-06-10T09:53:06;4.47;;;2.10;;
15645;SDS011;7922;43.622;1.476;2023-06-10T09:55:32;4.70;;;2.27;;
15645;SDS011;7922;43.622;1.476;2023-06-10T09:57:58;1.87;;;1.60;;
15645;SDS011;7922;43.622;1.476;2023-06-10T10:00:24;2.73;;;1.70;;
15645;SDS011;7922;43.622;1.476;2023-06-10T10:02:50;3.87;;;1.77;;
15645;SDS011;7922;43.622;1.476;2023-06-10T10:05:17;3.13;;;1.63;;
15645;SDS011;7922;43.622;1.476;2023-06-10T10:07:44;2.80;;;1.73;;
15645;SDS011;7922;43.622;1.476;2023-06-10T10:10:10;2.33;;;1.33;;
15645;SDS011;7922;43.622;1.476;2023-06-10T10:12:38;1.60;;;1.50;;
15645;SDS011;7922;43.622;1.476;2023-06-10T10:15:05;3.53;;;1.60;;
15645;SDS011;7922;43.622;1.476;2023-06-10T10:17:32;2.03;;;1.83;;
15645;SDS011;7922;43.622;1.476;2023-06-10T10:20:00;1.70;;;1.60;;
15645;SDS011;7922;43.622;1.476;2023-06-10T10:22:35;1.73;;;1.40;;
15645;SDS011;7922;43.622;1.476;2023-06-10T10:25:08;3.17;;;1.63;;
15645;SDS011;7922;43.622;1.476;2023-06-10T10:27:38;2.20;;;1.60;;
15645;SDS011;7922;43.622;1.476;2023-06-10T10:30:25;1.40;;;1.30;;
15645;SDS011;7922;43.622;1.476;2023-06-10T10:35:24;2.47;;;1.57;;
15645;SDS011;7922;43.622;1.476;2023-06-10T10:37:53;1.60;;;1.50;;
15645;SDS011;7922;43.622;1.476;2023-06-10T10:40:22;1.70;;;1.52;;
15645;SDS011;7922;43.622;1.476;2023-06-10T10:42:49;1.73;;;1.50;;
15645;SDS011;7922;43.622;1.476;2023-06-10T10:45:15;1.47;;;1.20;;
15645;SDS011;7922;43.622;1.476;2023-06-10T10:47:41;2.70;;;1.38;;
15645;SDS011;7922;43.622;1.476;2023-06-10T10:50:16;2.27;;;1.43;;
15645;SDS011;7922;43.622;1.476;2023-06-10T10:52:52;2.95;;;1.40;;
15645;SDS011;7922;43.622;1.476;2023-06-10T10:55:18;1.50;;;1.33;;
15645;SDS011;7922;43.622;1.476;2023-06-10T10:57:43;1.48;;;1.33;;
15645;SDS011;7922;43.622;1.476;2023-06-10T11:00:09;2.00;;;1.50;;
15645;SDS011;7922;43.622;1.476;2023-06-10T11:05:01;1.65;;;1.45;;
15645;SDS011;7922;43.622;1.476;2023-06-10T11:07:31;2.33;;;1.65;;
15645;SDS011;7922;43.622;1.476;2023-06-10T11:09:58;1.83;;;1.50;;
15645;SDS011;7922;43.622;1.476;2023-06-10T11:15:10;1.35;;;1.20;;
15645;SDS011;7922;43.622;1.476;2023-06-10T11:21:08;1.95;;;1.40;;
15645;SDS011;7922;43.622;1.476;2023-06-10T11:28:40;1.48;;;1.38;;
15645;SDS011;7922;43.622;1.476;2023-06-10T11:31:32;2.28;;;1.20;;
15645;SDS011;7922;43.622;1.476;2023-06-10T11:34:02;1.40;;;1.20;;
15645;SDS011;7922;43.622;1.476;2023-06-10T11:36:29;1.90;;;1.30;;
15645;SDS011;7922;43.622;1.476;2023-06-10T11:38:58;1.35;;;1.25;;
15645;SDS011;7922;43.622;1.476;2023-06-10T11:41:26;1.38;;;1.27;;
15645;SDS011;7922;43.622;1.476;2023-06-10T11:43:52;1.23;;;1.13;;
15645;SDS011;7922;43.622;1.476;2023-06-10T11:46:18;1.33;;;1.23;;
15645;SDS011;7922;43.622;1.476;2023-06-10T11:48:56;1.75;;;1.20;;
15645;SDS011;7922;43.622;1.476;2023-06-10T11:51:26;1.33;;;1.23;;
15645;SDS011;7922;43.622;1.476;2023-06-10T11:53:53;1.70;;;1.40;;
15645;SDS011;7922;43.622;1.476;2023-06-10T11:56:19;1.67;;;1.13;;
15645;SDS011;7922;43.622;1.476;2023-06-10T11:59:02;1.17;;;1.08;;
15645;SDS011;7922;43.622;1.476;2023-06-10T12:01:29;1.40;;;1.30;;
15645;SDS011;7922;43.622;1.476;2023-06-10T12:03:58;1.23;;;1.13;;
15645;SDS011;7922;43.622;1.476;2023-06-10T12:06:24;2.70;;;1.20;;
15645;SDS011;7922;43.622;1.476;2023-06-10T12:08:50;1.27;;;1.17;;
15645;SDS011;7922;43.622;1.476;2023-06-10T12:11:15;1.48;;;1.15;;
15645;SDS011;7922;43.622;1.476;2023-06-10T12:13:47;1.20;;;1.10;;
15645;SDS011;7922;43.622;1.476;2023-06-10T12:16:13;1.20;;;1.10;;
15645;SDS011;7922;43.622;1.476;2023-06-10T12:18:39;1.85;;;1.05;;
15645;SDS011;7922;43.622;1.476;2023-06-10T12:21:15;1.48;;;1.20;;
15645;SDS011;7922;43.622;1.476;2023-06-10T12:23:58;0.85;;;0.82;;
15645;SDS011;7922;43.622;1.476;2023-06-10T12:26:43;1.38;;;0.85;;
15645;SDS011;7922;43.622;1.476;2023-06-10T12:29:15;1.23;;;1.13;;
15645;SDS011;7922;43.622;1.476;2023-06-10T12:31:56;1.23;;;1.13;;
15645;SDS011;7922;43.622;1.476;2023-06-10T12:34:38;1.08;;;0.80;;
15645;SDS011;7922;43.622;1.476;2023-06-10T12:37:13;1.50;;;0.90;;
15645;SDS011;7922;43.622;1.476;2023-06-10T12:39:39;1.98;;;1.40;;
15645;SDS011;7922;43.622;1.476;2023-06-10T12:42:05;1.90;;;1.52;;
15645;SDS011;7922;43.622;1.476;2023-06-10T12:44:31;1.55;;;1.40;;
15645;SDS011;7922;43.622;1.476;2023-06-10T12:46:58;2.17;;;1.17;;
15645;SDS011;7922;43.622;1.476;2023-06-10T12:49:23;2.53;;;1.13;;
15645;SDS011;7922;43.622;1.476;2023-06-10T12:51:49;1.27;;;1.08;;
15645;SDS011;7922;43.622;1.476;2023-06-10T12:54:14;2.53;;;1.30;;
15645;SDS011;7922;43.622;1.476;2023-06-10T12:56:39;1.20;;;1.10;;
15645;SDS011;7922;43.622;1.476;2023-06-10T12:59:05;1.60;;;1.15;;
15645;SDS011;7922;43.622;1.476;2023-06-10T13:01:30;1.90;;;1.23;;
15645;SDS011;7922;43.622;1.476;2023-06-10T13:03:56;1.08;;;0.98;;
15645;SDS011;7922;43.622;1.476;2023-06-10T13:06:21;1.27;;;1.17;;
15645;SDS011;7922;43.622;1.476;2023-06-10T13:08:47;1.40;;;1.15;;
15645;SDS011;7922;43.622;1.476;2023-06-10T13:11:12;2.95;;;1.10;;
15645;SDS011;7922;43.622;1.476;2023-06-10T13:13:37;2.13;;;1.17;;
15645;SDS011;7922;43.622;1.476;2023-06-10T13:16:03;1.25;;;1.00;;
15645;SDS011;7922;43.622;1.476;2023-06-10T13:18:28;1.25;;;1.05;;
15645;SDS011;7922;43.622;1.476;2023-06-10T13:20:53;1.92;;;1.20;;
15645;SDS011;7922;43.622;1.476;2023-06-10T13:23:19;1.30;;;1.10;;
15645;SDS011;7922;43.622;1.476;2023-06-10T13:25:44;1.52;;;1.38;;
15645;SDS011;7922;43.622;1.476;2023-06-10T13:28:09;1.95;;;1.10;;
15645;SDS011;7922;43.622;1.476;2023-06-10T13:30:35;1.75;;;1.20;;
15645;SDS011;7922;43.622;1.476;2023-06-10T13:33:00;2.45;;;0.98;;
15645;SDS011;7922;43.622;1.476;2023-06-10T13:35:25;1.10;;;1.00;;
15645;SDS011;7922;43.622;1.476;2023-06-10T13:37:51;1.55;;;1.10;;
15645;SDS011;7922;43.622;1.476;2023-06-10T13:40:16;1.40;;;1.30;;
15645;SDS011;7922;43.622;1.476;2023-06-10T13:42:41;1.02;;;0.90;;
15645;SDS011;7922;43.622;1.476;2023-06-10T13:45:07;1.30;;;0.93;;
15645;SDS011;7922;43.622;1.476;2023-06-10T13:47:32;2.10;;;1.30;;
15645;SDS011;7922;43.622;1.476;2023-06-10T13:49:57;1.70;;;0.95;;
15645;SDS011;7922;43.622;1.476;2023-06-10T13:52:23;1.40;;;1.27;;
15645;SDS011;7922;43.622;1.476;2023-06-10T13:54:48;1.08;;;0.98;;
15645;SDS011;7922;43.622;1.476;2023-06-10T13:57:13;1.33;;;1.23;;
15645;SDS011;7922;43.622;1.476;2023-06-10T13:59:38;2.92;;;1.10;;
15645;SDS011;7922;43.622;1.476;2023-06-10T14:02:04;1.35;;;1.13;;
15645;SDS011;7922;43.622;1.476;2023-06-10T14:04:29;1.10;;;1.00;;
15645;SDS011;7922;43.622;1.476;2023-06-10T14:06:55;0.95;;;0.88;;
15645;SDS011;7922;43.622;1.476;2023-06-10T14:09:21;0.93;;;0.93;;
15645;SDS011;7922;43.622;1.476;2023-06-10T14:11:46;0.80;;;0.80;;
15645;SDS011;7922;43.622;1.476;2023-06-10T14:14:11;1.80;;;0.85;;
15645;SDS011;7922;43.622;1.476;2023-06-10T14:16:37;1.80;;;0.90;;
15645;SDS011;7922;43.622;1.476;2023-06-10T14:19:02;0.80;;;0.73;;
15645;SDS011;7922;43.622;1.476;2023-06-10T14:21:27;1.17;;;1.08;;
15645;SDS011;7922;43.622;1.476;2023-06-10T14:23:52;1.90;;;1.08;;
15645;SDS011;7922;43.622;1.476;2023-06-10T14:26:18;1.85;;;0.98;;
15645;SDS011;7922;43.622;1.476;2023-06-10T14:28:44;2.28;;;0.85;;
15645;SDS011;7922;43.622;1.476;2023-06-10T14:31:09;1.70;;;1.02;;
15645;SDS011;7922;43.622;1.476;2023-06-10T14:33:34;1.08;;;0.95;;
15645;SDS011;7922;43.622;1.476;2023-06-10T14:36:00;2.40;;;1.40;;
15645;SDS011;7922;43.622;1.476;2023-06-10T14:38:25;0.88;;;0.88;;
15645;SDS011;7922;43.622;1.476;2023-06-10T14:40:51;1.00;;;0.90;;
15645;SDS011;7922;43.622;1.476;2023-06-10T14:43:16;1.23;;;0.80;;
15645;SDS011;7922;43.622;1.476;2023-06-10T14:45:41;2.58;;;1.58;;
15645;SDS011;7922;43.622;1.476;2023-06-10T14:48:07;1.73;;;0.98;;
15645;SDS011;7922;43.622;1.476;2023-06-10T14:50:33;3.72;;;1.85;;
15645;SDS011;7922;43.622;1.476;2023-06-10T14:52:59;1.92;;;1.20;;
15645;SDS011;7922;43.622;1.476;2023-06-10T14:55:25;1.10;;;1.00;;
15645;SDS011;7922;43.622;1.476;2023-06-10T14:57:50;0.82;;;0.70;;
15645;SDS011;7922;43.622;1.476;2023-06-10T15:00:16;0.93;;;0.80;;
15645;SDS011;7922;43.622;1.476;2023-06-10T15:02:41;0.98;;;0.90;;
15645;SDS011;7922;43.622;1.476;2023-06-10T15:05:07;1.58;;;1.33;;
15645;SDS011;7922;43.622;1.476;2023-06-10T15:07:32;1.27;;;0.95;;
15645;SDS011;7922;43.622;1.476;2023-06-10T15:09:57;1.30;;;1.20;;
15645;SDS011;7922;43.622;1.476;2023-06-10T15:12:23;1.13;;;1.00;;
15645;SDS011;7922;43.622;1.476;2023-06-10T15:14:48;0.90;;;0.90;;
15645;SDS011;7922;43.622;1.476;2023-06-10T15:17:13;1.10;;;1.00;;
15645;SDS011;7922;43.622;1.476;2023-06-10T15:19:38;1.58;;;0.90;;
15645;SDS011;7922;43.622;1.476;2023-06-10T15:22:04;2.17;;;1.63;;